Time;durP1;ratioP1;P1;durP2;ratioP2;P2;SDS_P1;SDS_P2;PMS_P1;PMS_P2;Temp;Humidity;BMP_temperature;BMP_pressure;BME280_temperature;BME280_humidity;BME280_pressure;Samples;Min_cycle;Max_cycle;Signal;HPM_P1;HPM_P2
2023/12/23 00:02:25;;;;;;;;;0.75;0.75;;;;;-146.67;65.61;75933.63;5082036;27;61992;-75
2023/12/23 00:04:50;;;;;;;;;0.25;0.25;;;;;-146.67;65.87;75943.59;5083151;28;61921;-75
2023/12/23 00:07:15;;;;;;;;;1.00;1.00;;;;;-146.67;66.21;75927.63;5098878;27;61990;-75
2023/12/23 00:09:41;;;;;;;;;0.25;0.25;;;;;-146.67;66.61;75929.63;5083345;28;61905;-75
2023/12/23 00:12:08;;;;;;;;;0.00;0.00;;;;;-146.67;66.57;75929.63;5082280;28;61968;-75
2023/12/23 00:14:34;;;;;;;;;2.00;1.00;;;;;-146.67;66.58;75923.63;5082933;27;62072;-75
2023/12/23 00:17:00;;;;;;;;;1.00;1.00;;;;;-146.67;66.09;75921.63;5064102;28;61882;-75
2023/12/23 00:19:25;;;;;;;;;2.00;1.00;;;;;-146.67;65.90;75929.63;5082540;28;61800;-75
2023/12/23 00:21:50;;;;;;;;;0.00;0.00;;;;;-146.67;66.33;75953.59;5064245;28;64766;-75
2023/12/23 00:24:16;;;;;;;;;3.00;0.25;;;;;-146.67;67.07;75953.59;5082434;28;61708;-75
2023/12/23 00:26:41;;;;;;;;;2.00;1.00;;;;;-146.67;67.27;75961.56;5083051;28;61795;-75
2023/12/23 00:29:07;;;;;;;;;0.50;0.50;;;;;-146.67;67.88;75963.56;5082358;28;62139;-75
2023/12/23 00:31:32;;;;;;;;;0.00;0.00;;;;;-146.67;67.71;75943.59;5081552;28;61830;-75
2023/12/23 00:33:57;;;;;;;;;0.00;0.00;;;;;-146.67;67.50;75943.59;5082573;28;61800;-75
2023/12/23 00:36:23;;;;;;;;;1.00;0.00;;;;;-146.67;67.72;75937.63;5082271;28;61707;-75
2023/12/23 00:38:49;;;;;;;;;2.00;0.25;;;;;-146.67;67.42;75937.63;5081760;28;61955;-75
2023/12/23 00:41:14;;;;;;;;;2.00;0.00;;;;;-146.67;67.37;75941.59;5043386;28;64515;-75
2023/12/23 00:43:39;;;;;;;;;2.50;1.00;;;;;-146.67;68.00;75945.59;5062450;28;61744;-75
2023/12/23 00:46:07;;;;;;;;;1.00;0.00;;;;;-146.67;67.96;75949.59;5061581;28;61802;-75
2023/12/23 00:48:33;;;;;;;;;2.00;1.00;;;;;-146.67;67.88;75945.59;5043999;28;61814;-75
2023/12/23 00:50:58;;;;;;;;;1.00;1.00;;;;;-146.67;67.88;75941.59;5061322;28;62623;-75
2023/12/23 00:53:25;;;;;;;;;0.00;0.00;;;;;-146.67;67.89;75945.59;5061789;28;61776;-75
2023/12/23 00:55:54;;;;;;;;;1.25;0.75;;;;;-146.67;67.88;75945.59;5079175;28;61770;-75
2023/12/23 00:58:19;;;;;;;;;0.75;0.75;;;;;-146.67;67.43;75935.63;5082203;28;61802;-75
2023/12/23 01:00:44;;;;;;;;;1.50;0.00;;;;;-146.67;67.04;75935.63;5081192;28;62301;-75
2023/12/23 01:03:10;;;;;;;;;2.00;1.00;;;;;-146.67;67.20;75939.59;5082133;28;61956;-75
2023/12/23 01:05:35;;;;;;;;;1.75;0.75;;;;;-146.67;66.96;75929.63;5075510;28;61927;-75
2023/12/23 01:08:00;;;;;;;;;0.00;0.00;;;;;-146.67;66.69;75927.63;5062363;28;61992;-75
2023/12/23 01:10:26;;;;;;;;;0.50;0.50;;;;;-146.67;66.60;75937.63;5063529;28;62745;-75
2023/12/23 01:12:52;;;;;;;;;0.25;0.25;;;;;-146.67;66.78;75929.63;5082304;28;62007;-75
2023/12/23 01:15:18;;;;;;;;;0.00;0.00;;;;;-146.67;66.36;75935.63;5081772;28;61945;-75
2023/12/23 01:17:44;;;;;;;;;0.50;0.00;;;;;-146.67;66.07;75927.63;5082165;28;62059;-75
2023/12/23 01:20:10;;;;;;;;;0.75;0.75;;;;;-146.67;66.17;75929.63;5080085;28;61898;-75
2023/12/23 01:22:36;;;;;;;;;0.50;0.00;;;;;-146.67;66.22;75931.63;5063696;28;62172;-75
2023/12/23 01:25:02;;;;;;;;;1.00;1.00;;;;;-146.67;66.44;75949.59;5082224;28;61920;-74
2023/12/23 01:27:28;;;;;;;;;1.50;1.00;;;;;-146.67;66.70;75959.59;5080567;28;62139;-75
2023/12/23 01:29:53;;;;;;;;;1.00;0.00;;;;;-146.67;66.76;75951.59;5080924;28;62712;-75
2023/12/23 01:32:18;;;;;;;;;7.00;1.00;;;;;-146.67;66.44;75953.59;5063324;28;61748;-75
2023/12/23 01:34:44;;;;;;;;;1.00;1.00;;;;;-146.67;66.40;75959.59;5063778;28;61881;-75
2023/12/23 01:37:09;;;;;;;;;1.00;1.00;;;;;-146.67;66.53;75965.56;5082222;28;61937;-75
2023/12/23 01:39:34;;;;;;;;;0.00;0.00;;;;;-146.67;66.64;75963.56;5073604;28;61785;-75
2023/12/23 01:42:00;;;;;;;;;1.00;0.00;;;;;-146.67;66.56;75947.59;5046499;28;62030;-75
2023/12/23 01:44:25;;;;;;;;;2.25;1.00;;;;;-146.67;66.15;75935.63;5064817;28;61947;-75
2023/12/23 01:46:53;;;;;;;;;0.00;0.00;;;;;-146.67;65.91;75925.63;5046727;28;61911;-75
2023/12/23 01:49:20;;;;;;;;;1.00;1.00;;;;;-146.67;65.60;75931.63;5074525;28;63167;-75
2023/12/23 01:51:47;;;;;;;;;0.00;0.00;;;;;-146.67;65.67;75917.63;5085275;28;61743;-75
2023/12/23 01:54:13;;;;;;;;;2.00;0.00;;;;;-146.67;65.22;75921.63;5085438;28;61986;-75
2023/12/23 01:56:38;;;;;;;;;0.00;0.00;;;;;-146.67;65.03;75917.63;5066939;28;62112;-75
2023/12/23 01:59:04;;;;;;;;;0.00;0.00;;;;;-146.67;65.22;75911.66;5082285;28;62850;-75
2023/12/23 02:01:31;;;;;;;;;0.00;0.00;;;;;-146.67;64.47;75905.66;5085308;28;61779;-75
2023/12/23 02:03:56;;;;;;;;;0.25;0.25;;;;;-146.67;64.38;75895.66;5085149;28;61840;-75
2023/12/23 02:06:22;;;;;;;;;0.50;0.50;;;;;-146.67;63.98;75889.69;5085419;28;61786;-75
2023/12/23 02:08:47;;;;;;;;;0.50;0.00;;;;;-146.67;63.79;75893.66;5084036;28;61838;-75
2023/12/23 02:11:21;;;;;;;;;0.00;0.00;;;;;-146.67;63.52;75901.66;5085360;28;61852;-75
2023/12/23 02:14:00;;;;;;;;;0.00;0.00;;;;;-146.67;63.45;75901.66;5084250;28;61897;-75
2023/12/23 02:16:27;;;;;;;;;1.75;0.75;;;;;-146.67;63.41;75883.69;5085453;28;61733;-75
2023/12/23 02:18:52;;;;;;;;;0.50;0.00;;;;;-146.67;63.26;75891.69;5082826;28;61790;-75
2023/12/23 02:21:18;;;;;;;;;0.00;0.00;;;;;-146.67;63.28;75877.69;5084942;28;61731;-75
2023/12/23 02:23:43;;;;;;;;;0.00;0.00;;;;;-146.67;62.64;75865.72;5084737;28;61741;-75
2023/12/23 02:26:11;;;;;;;;;0.00;0.00;;;;;-146.67;62.07;75875.69;5085168;28;61765;-75
2023/12/23 02:28:40;;;;;;;;;0.00;0.00;;;;;-146.67;62.21;75891.69;5084199;28;61762;-75
2023/12/23 02:31:07;;;;;;;;;0.75;0.00;;;;;-146.67;62.37;75885.69;5084605;28;61893;-75
2023/12/23 02:33:33;;;;;;;;;1.00;0.00;;;;;-146.67;61.68;75881.69;5084537;28;61846;-75
2023/12/23 02:35:58;;;;;;;;;0.00;0.00;;;;;-146.67;61.79;75885.69;5084828;28;62124;-75
2023/12/23 02:38:23;;;;;;;;;0.00;0.00;;;;;-146.67;61.48;75887.69;5083793;28;62666;-75
2023/12/23 02:40:49;;;;;;;;;0.00;0.00;;;;;-146.67;61.35;75877.69;5047374;28;61836;-75
2023/12/23 02:43:14;;;;;;;;;0.25;0.00;;;;;-146.67;60.94;75881.69;5062693;28;61887;-75
2023/12/23 02:45:40;;;;;;;;;2.00;0.00;;;;;-146.67;61.41;75883.69;5046365;28;61836;-75
2023/12/23 02:48:05;;;;;;;;;0.00;0.00;;;;;-146.67;61.55;75881.69;5063322;28;61938;-75
2023/12/23 02:50:31;;;;;;;;;3.00;0.00;;;;;-146.67;61.42;75881.69;5063685;28;62202;-75
2023/12/23 02:52:59;;;;;;;;;1.00;0.00;;;;;-146.67;61.24;75879.69;5063286;28;61858;-75
2023/12/23 02:55:24;;;;;;;;;1.00;0.00;;;;;-146.67;61.03;75879.69;5064018;28;61793;-75
2023/12/23 02:57:50;;;;;;;;;0.00;0.00;;;;;-146.67;61.30;75883.69;5063670;28;62724;-75
2023/12/23 03:00:15;;;;;;;;;0.25;0.00;;;;;-146.67;61.20;75879.69;5063751;28;61776;-75
2023/12/23 03:02:41;;;;;;;;;0.00;0.00;;;;;-146.67;60.98;75875.69;5062383;28;62142;-75
2023/12/23 03:05:07;;;;;;;;;0.00;0.00;;;;;-146.67;61.10;75875.69;5064106;28;62159;-75
2023/12/23 03:07:32;;;;;;;;;1.00;0.00;;;;;-146.67;60.92;75885.69;5063301;28;61733;-75
2023/12/23 03:09:57;;;;;;;;;0.75;0.00;;;;;-146.67;60.89;75881.69;5045055;28;61808;-75
2023/12/23 03:12:23;;;;;;;;;0.00;0.00;;;;;-146.67;60.64;75881.69;5064659;28;61942;-75
2023/12/23 03:14:48;;;;;;;;;0.00;0.00;;;;;-146.67;60.33;75889.69;5084295;27;61806;-75
2023/12/23 03:17:13;;;;;;;;;0.50;0.00;;;;;-146.67;60.59;75885.69;5083009;27;61880;-75
2023/12/23 03:19:42;;;;;;;;;0.00;0.00;;;;;-146.67;60.00;75893.66;5099148;27;61748;-75
2023/12/23 03:22:07;;;;;;;;;0.50;0.00;;;;;-146.67;60.01;75907.66;5083476;28;61785;-75
2023/12/23 03:24:32;;;;;;;;;1.00;0.00;;;;;-146.67;60.62;75903.66;5082488;28;61810;-75
2023/12/23 03:26:58;;;;;;;;;1.00;0.00;;;;;-146.67;60.58;75889.69;5099154;27;63861;-75
2023/12/23 03:29:23;;;;;;;;;1.00;0.00;;;;;-146.67;60.26;75887.69;5083549;27;61912;-75
2023/12/23 03:31:48;;;;;;;;;2.00;0.00;;;;;-146.67;60.56;75875.69;5083674;27;61942;-75
2023/12/23 03:34:14;;;;;;;;;2.00;0.00;;;;;-146.67;60.44;75873.69;5083529;27;62126;-75
2023/12/23 03:36:39;;;;;;;;;1.50;0.25;;;;;-146.67;60.33;75869.72;5082917;27;61918;-75
2023/12/23 03:39:05;;;;;;;;;2.00;0.00;;;;;-146.67;60.50;75855.72;5083062;27;61915;-75
2023/12/23 03:41:31;;;;;;;;;1.00;0.00;;;;;-146.67;59.93;75861.72;5083537;27;62067;-75
2023/12/23 03:43:56;;;;;;;;;0.00;0.00;;;;;-146.67;60.09;75849.72;5099428;27;62153;-75
2023/12/23 03:46:22;;;;;;;;;0.00;0.00;;;;;-146.67;60.23;75845.75;5082855;27;62682;-75
2023/12/23 03:48:48;;;;;;;;;0.00;0.00;;;;;-146.67;60.41;75839.75;5086850;27;62126;-75
2023/12/23 03:51:13;;;;;;;;;0.75;0.00;;;;;-146.67;60.48;75831.75;5083063;28;61721;-75
2023/12/23 03:53:38;;;;;;;;;0.00;0.00;;;;;-146.67;60.35;75837.75;5083153;28;61758;-75
2023/12/23 03:56:04;;;;;;;;;0.00;0.00;;;;;-146.67;60.45;75847.75;5098559;27;62537;-75
2023/12/23 03:58:30;;;;;;;;;0.00;0.00;;;;;-146.67;60.75;75855.72;5082782;27;62101;-75
2023/12/23 04:00:55;;;;;;;;;0.50;0.00;;;;;-146.67;60.82;75861.72;5081680;28;61740;-75
2023/12/23 04:03:20;;;;;;;;;0.00;0.00;;;;;-146.67;60.72;75849.72;5098535;27;62100;-75
2023/12/23 04:05:46;;;;;;;;;0.00;0.00;;;;;-146.67;60.97;75843.75;5081715;27;61767;-75
2023/12/23 04:08:11;;;;;;;;;0.50;0.00;;;;;-146.67;60.69;75851.72;5082740;28;62012;-75
2023/12/23 04:10:36;;;;;;;;;2.25;0.00;;;;;-146.67;60.86;75843.75;5098383;27;61768;-75
2023/12/23 04:13:02;;;;;;;;;0.00;0.00;;;;;-146.67;60.55;75849.72;5083347;28;62000;-75
2023/12/23 04:15:27;;;;;;;;;0.00;0.00;;;;;-146.67;60.79;75845.75;5090724;27;63667;-75
2023/12/23 04:17:53;;;;;;;;;1.00;0.00;;;;;-146.67;60.70;75845.75;5083002;27;61949;-75
2023/12/23 04:20:19;;;;;;;;;4.00;0.00;;;;;-146.67;61.01;75851.72;5082547;27;61904;-75
2023/12/23 04:22:47;;;;;;;;;1.00;0.00;;;;;-146.67;61.43;75847.75;5082369;28;61860;-75
2023/12/23 04:25:13;;;;;;;;;0.00;0.00;;;;;-146.67;61.83;75867.72;5081964;28;62668;-75
2023/12/23 04:27:39;;;;;;;;;1.00;0.00;;;;;-146.67;61.81;75859.72;5098049;27;61844;-75
2023/12/23 04:30:05;;;;;;;;;0.00;0.00;;;;;-146.67;61.94;75863.72;5082960;27;62001;-75
2023/12/23 04:32:30;;;;;;;;;0.00;0.00;;;;;-146.67;62.62;75855.72;5082598;27;61987;-75
2023/12/23 04:34:55;;;;;;;;;0.00;0.00;;;;;-146.67;62.67;75851.72;5082276;28;61894;-75
2023/12/23 04:37:21;;;;;;;;;0.00;0.00;;;;;-146.67;62.51;75865.72;5082393;28;61728;-75
2023/12/23 04:39:46;;;;;;;;;0.00;0.00;;;;;-146.67;63.01;75867.72;5080762;28;62009;-75
2023/12/23 04:42:12;;;;;;;;;0.25;0.00;;;;;-146.67;63.09;75861.72;5082997;27;61889;-75
2023/12/23 04:44:37;;;;;;;;;0.00;0.00;;;;;-146.67;63.23;75865.72;5082042;27;62631;-75
2023/12/23 04:47:02;;;;;;;;;0.50;0.00;;;;;-146.67;63.76;75857.72;5082076;27;62101;-75
2023/12/23 04:49:28;;;;;;;;;0.00;0.00;;;;;-146.67;63.93;75853.72;5081797;28;61948;-75
2023/12/23 04:51:53;;;;;;;;;0.00;0.00;;;;;-146.67;63.82;75849.72;5082356;28;61951;-75
2023/12/23 04:54:18;;;;;;;;;0.00;0.00;;;;;-146.67;63.60;75849.72;5081937;27;62588;-75
2023/12/23 04:56:45;;;;;;;;;1.00;0.00;;;;;-146.67;63.27;75849.72;5082309;28;61951;-75
2023/12/23 04:59:10;;;;;;;;;1.00;0.00;;;;;-146.67;63.19;75845.75;5082515;27;62636;-75
2023/12/23 05:01:36;;;;;;;;;0.00;0.00;;;;;-146.67;63.15;75849.72;5082818;28;62040;-75
2023/12/23 05:04:01;;;;;;;;;0.00;0.00;;;;;-146.67;63.12;75867.72;5081292;27;61935;-75
2023/12/23 05:06:26;;;;;;;;;0.00;0.00;;;;;-146.67;63.08;75863.72;5082181;28;61798;-75
2023/12/23 05:08:52;;;;;;;;;1.00;0.00;;;;;-146.67;62.85;75869.72;5097634;27;61844;-75
2023/12/23 05:11:17;;;;;;;;;0.00;0.00;;;;;-146.67;63.14;75869.72;5081326;27;61927;-75
2023/12/23 05:13:42;;;;;;;;;0.75;0.00;;;;;-146.67;62.93;75855.72;5081402;27;61948;-75
2023/12/23 05:16:08;;;;;;;;;0.00;0.00;;;;;-146.67;62.74;75861.72;5080593;28;62170;-75
2023/12/23 05:18:33;;;;;;;;;2.50;0.00;;;;;-146.67;62.47;75853.72;5063709;28;61889;-75
2023/12/23 05:20:58;;;;;;;;;0.00;0.00;;;;;-146.67;62.71;75857.72;5081225;28;61962;-75
2023/12/23 05:23:24;;;;;;;;;1.00;0.00;;;;;-146.67;62.56;75855.72;5081568;28;61710;-75
2023/12/23 05:25:50;;;;;;;;;0.00;0.00;;;;;-146.67;62.50;75851.72;5082142;28;61902;-75
2023/12/23 05:28:16;;;;;;;;;0.00;0.00;;;;;-146.67;62.28;75849.72;5082060;28;62142;-75
2023/12/23 05:30:41;;;;;;;;;0.00;0.00;;;;;-146.67;61.88;75847.75;5082207;28;61712;-75
2023/12/23 05:33:06;;;;;;;;;0.00;0.00;;;;;-146.67;61.59;75847.75;5080954;28;62565;-75
2023/12/23 05:35:32;;;;;;;;;0.00;0.00;;;;;-146.67;61.28;75849.72;5081720;28;62094;-75
2023/12/23 05:37:57;;;;;;;;;2.25;0.25;;;;;-146.67;61.08;75845.75;5081665;28;61919;-75
2023/12/23 05:40:22;;;;;;;;;0.00;0.00;;;;;-146.67;61.08;75849.72;5067502;28;62112;-75
2023/12/23 05:42:48;;;;;;;;;1.00;0.00;;;;;-146.67;60.40;75841.75;5076435;28;61916;-75
2023/12/23 05:45:14;;;;;;;;;1.00;0.00;;;;;-146.67;60.33;75841.75;5081793;28;61761;-75
2023/12/23 05:47:40;;;;;;;;;1.50;0.00;;;;;-146.67;59.91;75839.75;5063148;28;61813;-75
2023/12/23 05:50:06;;;;;;;;;2.00;0.00;;;;;-146.67;59.79;75837.75;5080990;28;61827;-75
2023/12/23 05:52:31;;;;;;;;;0.25;0.00;;;;;-146.67;59.44;75819.78;5063135;28;64018;-75
2023/12/23 05:54:57;;;;;;;;;0.00;0.00;;;;;-146.67;59.33;75829.75;5080404;28;62007;-75
2023/12/23 05:57:22;;;;;;;;;0.00;0.00;;;;;-146.67;59.08;75823.78;5081466;28;61742;-75
2023/12/23 05:59:48;;;;;;;;;1.00;0.00;;;;;-146.67;58.88;75823.78;5081694;28;61735;-75
2023/12/23 06:02:13;;;;;;;;;0.50;0.00;;;;;-146.67;58.60;75841.75;5080396;28;61844;-75
2023/12/23 06:04:39;;;;;;;;;0.00;0.00;;;;;-146.67;58.78;75829.75;5064005;28;62190;-75
2023/12/23 06:07:04;;;;;;;;;0.00;0.00;;;;;-146.67;58.17;75837.75;5061480;28;61839;-75
2023/12/23 06:09:29;;;;;;;;;1.00;0.00;;;;;-146.67;58.33;75821.78;5061194;28;61786;-75
2023/12/23 06:11:55;;;;;;;;;1.00;0.00;;;;;-146.67;58.28;75833.75;5060803;28;62629;-75
2023/12/23 06:14:20;;;;;;;;;0.75;0.75;;;;;-146.67;58.12;75833.75;5078437;28;61993;-75
2023/12/23 06:16:45;;;;;;;;;1.00;0.00;;;;;-146.67;57.87;75829.75;5081691;28;61695;-75
2023/12/23 06:19:11;;;;;;;;;0.00;0.00;;;;;-146.67;57.74;75833.75;5062001;28;61879;-75
2023/12/23 06:21:36;;;;;;;;;0.00;0.00;;;;;-146.67;57.73;75843.75;5060784;28;62666;-75
2023/12/23 06:24:02;;;;;;;;;0.00;0.00;;;;;-146.67;57.68;75839.75;5076528;28;62038;-75
2023/12/23 06:26:27;;;;;;;;;1.50;0.00;;;;;-146.67;57.51;75851.72;5061212;28;62099;-75
2023/12/23 06:28:52;;;;;;;;;2.00;0.00;;;;;-146.67;57.71;75849.72;5096291;27;61796;-75
2023/12/23 06:31:18;;;;;;;;;0.50;0.00;;;;;-146.67;57.57;75839.75;5074929;28;62017;-75
2023/12/23 06:33:43;;;;;;;;;1.00;0.00;;;;;-146.67;57.48;75839.75;5083969;27;61938;-75
2023/12/23 06:36:09;;;;;;;;;1.00;0.00;;;;;-146.67;57.59;75843.75;5083389;28;62105;-75
2023/12/23 06:38:35;;;;;;;;;2.00;0.00;;;;;-146.67;57.21;75835.75;5084766;28;61962;-75
2023/12/23 06:41:03;;;;;;;;;1.75;0.00;;;;;-146.67;57.43;75837.75;5083655;28;61863;-75
2023/12/23 06:43:29;;;;;;;;;0.00;0.00;;;;;-146.67;57.21;75835.75;5084377;27;61794;-75
2023/12/23 06:45:54;;;;;;;;;2.00;0.00;;;;;-146.67;57.25;75831.75;5084489;28;61719;-75
2023/12/23 06:48:20;;;;;;;;;0.00;0.00;;;;;-146.67;57.45;75821.78;5083860;27;61792;-75
2023/12/23 06:50:45;;;;;;;;;1.50;0.00;;;;;-146.67;57.07;75805.81;5083179;28;62952;-75
2023/12/23 06:53:10;;;;;;;;;0.00;0.00;;;;;-146.67;56.93;75823.78;5084569;27;61769;-75
2023/12/23 06:55:36;;;;;;;;;0.00;0.00;;;;;-146.67;57.42;75835.75;5084408;28;61962;-75
2023/12/23 06:58:01;;;;;;;;;0.00;0.00;;;;;-146.67;57.13;75837.75;5100223;27;61832;-75
2023/12/23 07:00:26;;;;;;;;;0.00;0.00;;;;;-146.67;57.35;75831.75;5083481;28;61989;-75
2023/12/23 07:02:52;;;;;;;;;0.25;0.25;;;;;-146.67;57.24;75831.75;5083325;28;62003;-75
2023/12/23 07:05:18;;;;;;;;;0.00;0.00;;;;;-146.67;57.28;75831.75;5084615;28;61990;-76
2023/12/23 07:07:43;;;;;;;;;0.75;0.00;;;;;-146.67;57.32;75849.72;5083130;28;62068;-76
2023/12/23 07:10:10;;;;;;;;;1.00;0.00;;;;;-146.67;57.37;75851.72;5083721;28;61871;-76
2023/12/23 07:12:36;;;;;;;;;0.00;0.00;;;;;-146.67;57.26;75861.72;5083762;28;62017;-76
2023/12/23 07:15:03;;;;;;;;;0.50;0.00;;;;;-146.67;57.51;75841.75;5069909;28;61972;-76
2023/12/23 07:17:28;;;;;;;;;0.00;0.00;;;;;-146.67;57.49;75839.75;5062068;28;61732;-76
2023/12/23 07:19:53;;;;;;;;;1.25;0.00;;;;;-146.67;57.31;75839.75;5062333;28;62741;-75
2023/12/23 07:22:19;;;;;;;;;0.00;0.00;;;;;-146.67;57.58;75837.75;5063688;28;61794;-75
2023/12/23 07:24:44;;;;;;;;;0.00;0.00;;;;;-146.67;57.36;75833.75;5062032;28;62091;-75
2023/12/23 07:27:09;;;;;;;;;0.00;0.00;;;;;-146.67;57.25;75837.75;5045966;28;62056;-75
2023/12/23 07:29:38;;;;;;;;;6.50;0.00;;;;;-146.67;57.26;75845.75;5061126;28;64053;-75
2023/12/23 07:32:04;;;;;;;;;1.00;0.00;;;;;-146.67;57.42;75853.72;5061202;28;61958;-76
2023/12/23 07:34:29;;;;;;;;;0.50;0.00;;;;;-146.67;57.23;75833.75;5049662;28;61912;-75
2023/12/23 07:36:55;;;;;;;;;0.00;0.00;;;;;-146.67;57.09;75843.75;5046937;28;61819;-75
2023/12/23 07:39:20;;;;;;;;;0.00;0.00;;;;;-146.67;57.44;75851.72;5061737;28;61790;-75
2023/12/23 07:41:45;;;;;;;;;0.00;0.00;;;;;-146.67;57.46;75851.72;5064138;28;61961;-75
2023/12/23 07:44:11;;;;;;;;;2.00;0.00;;;;;-146.67;57.26;75843.75;5044524;28;62134;-75
2023/12/23 07:46:36;;;;;;;;;0.00;0.00;;;;;-146.67;57.51;75847.75;5052748;28;61813;-75
2023/12/23 07:49:01;;;;;;;;;2.25;0.00;;;;;-146.67;57.20;75851.72;5035183;28;64571;-75
2023/12/23 07:51:27;;;;;;;;;1.00;0.00;;;;;-146.67;57.49;75851.72;5052722;28;61958;-75
2023/12/23 07:53:52;;;;;;;;;0.00;0.00;;;;;-146.67;57.57;75843.75;5045368;28;61919;-75
2023/12/23 07:56:18;;;;;;;;;2.75;0.25;;;;;-146.67;57.43;75825.78;5063594;28;62144;-76
2023/12/23 07:58:43;;;;;;;;;0.00;0.00;;;;;-146.67;57.29;75809.78;5059723;28;62033;-77
2023/12/23 08:01:10;;;;;;;;;0.00;0.00;;;;;-146.67;57.38;75817.78;5056003;28;61988;-76
2023/12/23 08:03:44;;;;;;;;;1.75;0.25;;;;;-146.67;57.26;75819.78;5052851;28;61886;-75
2023/12/23 08:06:09;;;;;;;;;0.25;0.25;;;;;-146.67;57.46;75813.78;5053738;28;61863;-76
2023/12/23 08:08:34;;;;;;;;;0.75;0.00;;;;;-146.67;57.37;75809.78;5050980;28;61918;-76
2023/12/23 08:11:00;;;;;;;;;0.25;0.00;;;;;-146.67;57.67;75813.78;5052196;28;61845;-74
2023/12/23 08:13:28;;;;;;;;;0.25;0.00;;;;;-146.67;57.50;75813.78;5066206;27;62240;-75
2023/12/23 08:15:53;;;;;;;;;0.50;0.00;;;;;-146.67;57.52;75805.81;5079528;28;61821;-75
2023/12/23 08:18:19;;;;;;;;;1.00;0.00;;;;;-146.67;57.52;75811.78;5081193;28;61899;-75
2023/12/23 08:20:45;;;;;;;;;0.00;0.00;;;;;-146.67;57.43;75795.81;5085592;27;61948;-75
2023/12/23 08:23:10;;;;;;;;;0.25;0.00;;;;;-146.67;57.60;75809.78;5080848;27;61786;-75
2023/12/23 08:25:36;;;;;;;;;2.00;0.00;;;;;-146.67;57.62;75805.81;5098317;27;62000;-75
2023/12/23 08:28:01;;;;;;;;;0.50;0.00;;;;;-146.67;57.73;75815.78;5081662;28;62776;-75
2023/12/23 08:30:26;;;;;;;;;0.00;0.00;;;;;-146.67;57.54;75833.75;5081862;27;61875;-75
2023/12/23 08:32:52;;;;;;;;;2.00;0.50;;;;;-146.67;57.68;75835.75;5081132;28;61787;-75
2023/12/23 08:35:17;;;;;;;;;2.00;0.25;;;;;-146.67;57.95;75843.75;5082928;27;61809;-75
2023/12/23 08:37:43;;;;;;;;;0.00;0.00;;;;;-146.67;57.98;75845.75;5080547;28;64771;-75
2023/12/23 08:40:10;;;;;;;;;1.50;0.00;;;;;-146.67;57.89;75845.75;5082018;28;61729;-76
2023/12/23 08:42:36;;;;;;;;;0.00;0.00;;;;;-146.67;58.03;75825.78;5082992;27;61691;-75
2023/12/23 08:45:01;;;;;;;;;0.00;0.00;;;;;-146.67;57.79;75825.78;5082459;27;61808;-75
2023/12/23 08:47:26;;;;;;;;;0.00;0.00;;;;;-146.67;57.82;75829.75;5078924;27;62422;-75
2023/12/23 08:49:53;;;;;;;;;0.00;0.00;;;;;-146.67;58.20;75839.75;5081256;27;62032;-76
2023/12/23 08:52:18;;;;;;;;;1.00;0.00;;;;;-146.67;57.90;75837.75;5091817;27;61810;-76
2023/12/23 08:54:44;;;;;;;;;0.00;0.00;;;;;-146.67;57.93;75833.75;5091080;27;61995;-76
2023/12/23 08:57:09;;;;;;;;;1.00;1.00;;;;;-146.67;58.11;75831.75;5087893;27;62701;-76
2023/12/23 08:59:35;;;;;;;;;0.75;0.00;;;;;-146.67;58.16;75831.75;5090852;27;61906;-77
2023/12/23 09:02:02;;;;;;;;;1.00;0.00;;;;;-146.67;58.69;75817.78;5089660;27;61830;-76
2023/12/23 09:04:28;;;;;;;;;0.00;0.00;;;;;-146.67;58.64;75801.81;5100429;27;62039;-76
2023/12/23 09:06:55;;;;;;;;;0.00;0.00;;;;;-146.67;58.28;75793.81;5081075;27;61938;-76
2023/12/23 09:09:20;;;;;;;;;0.00;0.00;;;;;-146.67;58.28;75783.84;5080328;28;61885;-76
2023/12/23 09:11:46;;;;;;;;;0.25;0.00;;;;;-146.67;58.03;75783.84;5079464;28;61905;-76
2023/12/23 09:14:12;;;;;;;;;0.00;0.00;;;;;-146.67;57.86;75779.84;5082044;27;61886;-74
2023/12/23 09:16:38;;;;;;;;;0.00;0.00;;;;;-146.67;58.05;75771.84;5087643;27;64788;-76
2023/12/23 09:19:04;;;;;;;;;0.00;0.00;;;;;-146.67;57.51;75775.84;5083052;27;61934;-75
2023/12/23 09:21:30;;;;;;;;;2.50;0.00;;;;;-146.67;57.74;75773.84;5081544;28;61902;-76
2023/12/23 09:23:55;;;;;;;;;1.75;0.00;;;;;-146.67;57.99;75753.88;5080946;27;61826;-75
2023/12/23 09:26:24;;;;;;;;;0.25;0.00;;;;;-146.67;57.80;75743.88;5081108;28;62413;-75
2023/12/23 09:28:50;;;;;;;;;0.75;0.00;;;;;-146.67;57.73;75741.91;5075561;28;61802;-75
2023/12/23 09:31:15;;;;;;;;;1.00;0.00;;;;;-146.67;57.71;75727.91;5087476;27;61895;-75
2023/12/23 09:33:41;;;;;;;;;0.00;0.00;;;;;-146.67;57.51;75737.91;5089632;27;62092;-75
2023/12/23 09:36:07;;;;;;;;;1.00;0.00;;;;;-146.67;57.43;75729.91;5089235;27;62566;-74
2023/12/23 09:38:32;;;;;;;;;1.50;0.00;;;;;-146.67;57.80;75731.91;5105556;27;61948;-75
2023/12/23 09:40:58;;;;;;;;;1.00;0.00;;;;;-146.67;57.95;75739.91;5088075;27;61969;-75
2023/12/23 09:43:24;;;;;;;;;0.00;0.00;;;;;-146.67;58.07;75735.91;5091429;27;62142;-76
2023/12/23 09:45:51;;;;;;;;;1.00;0.00;;;;;-146.67;58.25;75731.91;5085226;27;63354;-76
2023/12/23 09:48:17;;;;;;;;;1.50;0.00;;;;;-146.67;58.41;75729.91;5079599;28;61943;-76
2023/12/23 09:50:43;;;;;;;;;0.00;0.00;;;;;-146.67;58.45;75725.91;5080982;27;61831;-78
2023/12/23 09:53:13;;;;;;;;;3.25;0.75;;;;;-146.67;58.45;75721.91;5081548;28;61711;-78
2023/12/23 09:55:40;;;;;;;;;0.75;0.00;;;;;-146.67;58.62;75723.91;5096192;27;64671;-78
2023/12/23 09:58:05;;;;;;;;;2.00;0.00;;;;;-146.67;58.53;75721.91;5079871;28;61939;-78
2023/12/23 10:00:32;;;;;;;;;0.00;0.00;;;;;-146.67;58.39;75713.94;5077417;27;61793;-77
2023/12/23 10:02:58;;;;;;;;;0.00;0.00;;;;;-146.67;58.57;75717.94;5079956;27;62030;-76
2023/12/23 10:05:27;;;;;;;;;0.00;0.00;;;;;-146.67;58.50;75709.94;5082982;28;64182;-76
2023/12/23 10:07:58;;;;;;;;;0.00;0.00;;;;;-146.67;58.23;75721.91;5084034;27;61756;-76
2023/12/23 10:10:25;;;;;;;;;0.00;0.00;;;;;-146.67;58.38;75717.94;5071377;27;61928;-77
2023/12/23 10:12:50;;;;;;;;;2.00;0.00;;;;;-146.67;58.24;75711.94;5091837;27;61714;-76
2023/12/23 10:15:16;;;;;;;;;0.75;0.75;;;;;-146.67;58.15;75711.94;5092611;27;61764;-81
2023/12/23 10:17:41;;;;;;;;;2.00;0.50;;;;;-146.67;58.44;75699.94;5080599;27;61981;-77
2023/12/23 10:20:07;;;;;;;;;0.00;0.00;;;;;-146.67;58.28;75695.97;5083520;27;62081;-82
2023/12/23 10:22:32;;;;;;;;;3.25;0.00;;;;;-146.67;58.37;75687.97;5108074;27;62221;-81
2023/12/23 10:25:00;;;;;;;;;4.00;0.75;;;;;-146.67;58.03;75689.97;5096086;27;61971;-87
2023/12/23 10:27:26;;;;;;;;;0.00;0.00;;;;;-146.67;58.04;75681.97;5088524;27;61939;-81
2023/12/23 10:29:55;;;;;;;;;3.00;0.00;;;;;-146.67;58.46;75681.97;5081463;27;61845;-80
2023/12/23 10:32:24;;;;;;;;;0.00;0.00;;;;;-146.67;58.69;75687.97;5084364;27;61746;-84
2023/12/23 10:34:56;;;;;;;;;0.00;0.00;;;;;-146.67;58.59;75679.97;5096757;27;62188;-80
2023/12/23 10:37:23;;;;;;;;;2.50;0.00;;;;;-146.67;58.23;75678.00;5104761;27;61778;-79
2023/12/23 10:39:54;;;;;;;;;1.00;0.00;;;;;-146.67;58.32;75674.00;5093198;27;61925;-79
2023/12/23 10:42:23;;;;;;;;;0.25;0.25;;;;;-146.67;58.50;75678.00;5104774;27;62065;-80
2023/12/23 10:44:48;;;;;;;;;1.75;0.50;;;;;-146.67;58.77;75664.00;5092426;27;61879;-78
2023/12/23 10:47:15;;;;;;;;;0.25;0.00;;;;;-146.67;58.80;75654.03;5084254;28;62187;-81
2023/12/23 10:49:44;;;;;;;;;1.00;0.00;;;;;-146.67;58.69;75646.03;5083227;28;61956;-84
2023/12/23 10:52:11;;;;;;;;;2.75;0.00;;;;;-146.67;58.67;75644.03;5084547;27;61822;-84
2023/12/23 10:54:37;;;;;;;;;1.00;0.75;;;;;-146.67;58.75;75630.06;5085871;27;63380;-83
2023/12/23 10:57:04;;;;;;;;;0.00;0.00;;;;;-146.67;58.67;75626.06;5082684;28;61873;-80
2023/12/23 10:59:30;;;;;;;;;0.00;0.00;;;;;-146.67;58.77;75634.06;5088966;27;61841;-79
2023/12/23 11:01:57;;;;;;;;;0.75;0.00;;;;;-146.67;58.61;75628.06;5092071;27;62195;-80
2023/12/23 11:04:27;;;;;;;;;0.00;0.00;;;;;-146.67;58.61;75614.09;5092823;27;63583;-80
2023/12/23 11:06:55;;;;;;;;;0.50;0.50;;;;;-146.67;58.67;75612.09;5093600;27;62000;-82
2023/12/23 11:09:22;;;;;;;;;0.25;0.25;;;;;-146.67;58.53;75618.06;5093936;27;62015;-84
2023/12/23 11:11:48;;;;;;;;;3.75;0.00;;;;;-146.67;58.58;75598.09;5122544;27;63116;-84